sensor_id;sensor_type;location;lat;lon;timestamp;temperature;humidity
40123;DHT22;25832;45.490;4.912;2023-06-22T00:01:05;19.40;99.90
40123;DHT22;25832;45.490;4.912;2023-06-22T00:03:31;19.30;99.90
40123;DHT22;25832;45.490;4.912;2023-06-22T00:05:57;19.30;99.90
40123;DHT22;25832;45.490;4.912;2023-06-22T00:08:23;19.30;99.90
40123;DHT22;25832;45.490;4.912;2023-06-22T00:10:48;19.20;99.90
40123;DHT22;25832;45.490;4.912;2023-06-22T00:13:14;19.20;99.90
40123;DHT22;25832;45.490;4.912;2023-06-22T00:15:42;19.20;99.90
40123;DHT22;25832;45.490;4.912;2023-06-22T00:18:08;19.10;99.90
40123;DHT22;25832;45.490;4.912;2023-06-22T00:20:34;19.10;99.90
40123;DHT22;25832;45.490;4.912;2023-06-22T00:23:03;19.10;99.90
40123;DHT22;25832;45.490;4.912;2023-06-22T00:25:38;19.10;99.90
40123;DHT22;25832;45.490;4.912;2023-06-22T00:28:07;19.10;99.90
40123;DHT22;25832;45.490;4.912;2023-06-22T00:30:34;19.10;99.90
40123;DHT22;25832;45.490;4.912;2023-06-22T00:33:00;19.10;99.90
40123;DHT22;25832;45.490;4.912;2023-06-22T00:35:26;19.10;99.90
40123;DHT22;25832;45.490;4.912;2023-06-22T00:37:55;19.10;99.90
40123;DHT22;25832;45.490;4.912;2023-06-22T00:40:31;19.00;99.90
40123;DHT22;25832;45.490;4.912;2023-06-22T00:42:57;18.90;99.90
40123;DHT22;25832;45.490;4.912;2023-06-22T00:45:23;18.80;99.90
40123;DHT22;25832;45.490;4.912;2023-06-22T00:47:55;18.80;99.90
40123;DHT22;25832;45.490;4.912;2023-06-22T00:50:23;18.70;99.90
40123;DHT22;25832;45.490;4.912;2023-06-22T00:52:57;18.70;99.90
40123;DHT22;25832;45.490;4.912;2023-06-22T00:55:24;18.70;99.90
40123;DHT22;25832;45.490;4.912;2023-06-22T00:57:52;18.70;99.90
40123;DHT22;25832;45.490;4.912;2023-06-22T01:00:22;18.60;99.90
40123;DHT22;25832;45.490;4.912;2023-06-22T01:02:50;18.60;99.90
40123;DHT22;25832;45.490;4.912;2023-06-22T01:05:21;18.70;99.90
40123;DHT22;25832;45.490;4.912;2023-06-22T01:07:56;18.60;99.90
40123;DHT22;25832;45.490;4.912;2023-06-22T01:13:01;18.60;99.90
40123;DHT22;25832;45.490;4.912;2023-06-22T01:15:28;18.60;99.90
40123;DHT22;25832;45.490;4.912;2023-06-22T01:17:57;18.60;99.90
40123;DHT22;25832;45.490;4.912;2023-06-22T01:20:25;18.60;99.90
40123;DHT22;25832;45.490;4.912;2023-06-22T01:23:26;18.50;99.90
40123;DHT22;25832;45.490;4.912;2023-06-22T01:25:59;18.50;99.90
40123;DHT22;25832;45.490;4.912;2023-06-22T01:28:49;18.40;99.90
40123;DHT22;25832;45.490;4.912;2023-06-22T01:31:18;18.40;99.90
40123;DHT22;25832;45.490;4.912;2023-06-22T01:33:48;18.40;99.90
40123;DHT22;25832;45.490;4.912;2023-06-22T01:36:15;18.50;99.90
40123;DHT22;25832;45.490;4.912;2023-06-22T01:38:42;18.60;99.90
40123;DHT22;25832;45.490;4.912;2023-06-22T01:41:09;18.80;99.90
40123;DHT22;25832;45.490;4.912;2023-06-22T01:43:36;18.90;99.90
40123;DHT22;25832;45.490;4.912;2023-06-22T01:46:04;19.00;99.90
40123;DHT22;25832;45.490;4.912;2023-06-22T01:48:30;19.10;99.90
40123;DHT22;25832;45.490;4.912;2023-06-22T01:50:56;19.20;99.90
40123;DHT22;25832;45.490;4.912;2023-06-22T01:53:23;19.20;99.90
40123;DHT22;25832;45.490;4.912;2023-06-22T01:55:49;19.30;99.90
40123;DHT22;25832;45.490;4.912;2023-06-22T01:58:15;19.30;99.90
40123;DHT22;25832;45.490;4.912;2023-06-22T02:00:45;19.30;99.90
40123;DHT22;25832;45.490;4.912;2023-06-22T02:03:19;19.20;99.90
40123;DHT22;25832;45.490;4.912;2023-06-22T02:05:55;19.20;99.90
40123;DHT22;25832;45.490;4.912;2023-06-22T02:08:29;19.10;99.90
40123;DHT22;25832;45.490;4.912;2023-06-22T02:10:57;19.10;99.90
40123;DHT22;25832;45.490;4.912;2023-06-22T02:13:24;19.00;99.90
40123;DHT22;25832;45.490;4.912;2023-06-22T02:15:51;19.00;99.90
40123;DHT22;25832;45.490;4.912;2023-06-22T02:18:16;18.90;99.90
40123;DHT22;25832;45.490;4.912;2023-06-22T02:20:42;19.00;99.90
40123;DHT22;25832;45.490;4.912;2023-06-22T02:23:08;18.90;99.90
40123;DHT22;25832;45.490;4.912;2023-06-22T02:25:34;18.80;99.90
40123;DHT22;25832;45.490;4.912;2023-06-22T02:28:00;18.70;99.90
40123;DHT22;25832;45.490;4.912;2023-06-22T02:30:25;18.80;99.90
40123;DHT22;25832;45.490;4.912;2023-06-22T02:32:51;18.70;99.90
40123;DHT22;25832;45.490;4.912;2023-06-22T02:35:30;18.70;99.90
40123;DHT22;25832;45.490;4.912;2023-06-22T02:38:02;18.60;99.90
40123;DHT22;25832;45.490;4.912;2023-06-22T02:40:29;18.50;99.90
40123;DHT22;25832;45.490;4.912;2023-06-22T02:42:55;18.30;99.90
40123;DHT22;25832;45.490;4.912;2023-06-22T02:45:23;18.20;99.90
40123;DHT22;25832;45.490;4.912;2023-06-22T02:47:49;18.20;99.90
40123;DHT22;25832;45.490;4.912;2023-06-22T02:50:15;18.10;99.90
40123;DHT22;25832;45.490;4.912;2023-06-22T02:52:40;18.10;99.90
40123;DHT22;25832;45.490;4.912;2023-06-22T02:55:06;18.00;99.90
40123;DHT22;25832;45.490;4.912;2023-06-22T02:57:35;18.00;99.90
40123;DHT22;25832;45.490;4.912;2023-06-22T03:00:03;18.00;99.90
40123;DHT22;25832;45.490;4.912;2023-06-22T03:02:42;18.10;99.90
40123;DHT22;25832;45.490;4.912;2023-06-22T03:05:08;18.00;99.90
40123;DHT22;25832;45.490;4.912;2023-06-22T03:07:41;18.00;99.90
40123;DHT22;25832;45.490;4.912;2023-06-22T03:10:12;18.00;99.90
40123;DHT22;25832;45.490;4.912;2023-06-22T03:12:39;18.00;99.90
40123;DHT22;25832;45.490;4.912;2023-06-22T03:15:12;18.00;99.90
40123;DHT22;25832;45.490;4.912;2023-06-22T03:17:39;18.10;99.90
40123;DHT22;25832;45.490;4.912;2023-06-22T03:20:06;18.10;99.90
40123;DHT22;25832;45.490;4.912;2023-06-22T03:22:39;18.20;99.90
40123;DHT22;25832;45.490;4.912;2023-06-22T03:25:05;18.10;99.90
40123;DHT22;25832;45.490;4.912;2023-06-22T03:27:42;18.10;99.90
40123;DHT22;25832;45.490;4.912;2023-06-22T03:30:10;18.20;99.90
40123;DHT22;25832;45.490;4.912;2023-06-22T03:32:36;18.20;99.90
40123;DHT22;25832;45.490;4.912;2023-06-22T03:35:02;18.10;99.90
40123;DHT22;25832;45.490;4.912;2023-06-22T03:37:28;18.10;99.90
40123;DHT22;25832;45.490;4.912;2023-06-22T03:39:54;18.10;99.90
40123;DHT22;25832;45.490;4.912;2023-06-22T03:42:20;18.00;99.90
40123;DHT22;25832;45.490;4.912;2023-06-22T03:44:46;18.00;99.90
40123;DHT22;25832;45.490;4.912;2023-06-22T03:47:12;18.00;99.90
40123;DHT22;25832;45.490;4.912;2023-06-22T03:49:38;18.10;99.90
40123;DHT22;25832;45.490;4.912;2023-06-22T03:52:04;18.10;99.90
40123;DHT22;25832;45.490;4.912;2023-06-22T03:54:30;18.10;99.90
40123;DHT22;25832;45.490;4.912;2023-06-22T03:56:57;18.20;99.90
40123;DHT22;25832;45.490;4.912;2023-06-22T03:59:24;18.20;99.90
40123;DHT22;25832;45.490;4.912;2023-06-22T04:01:50;18.30;99.90
40123;DHT22;25832;45.490;4.912;2023-06-22T04:04:17;18.40;99.90
40123;DHT22;25832;45.490;4.912;2023-06-22T04:06:43;18.50;99.90
40123;DHT22;25832;45.490;4.912;2023-06-22T04:09:09;18.50;99.90
40123;DHT22;25832;45.490;4.912;2023-06-22T04:11:34;18.40;99.90
40123;DHT22;25832;45.490;4.912;2023-06-22T04:14:00;18.40;99.90
40123;DHT22;25832;45.490;4.912;2023-06-22T04:16:26;18.40;99.90
40123;DHT22;25832;45.490;4.912;2023-06-22T04:18:52;18.40;99.90
40123;DHT22;25832;45.490;4.912;2023-06-22T04:21:17;18.40;99.90
40123;DHT22;25832;45.490;4.912;2023-06-22T04:23:45;18.30;99.90
40123;DHT22;25832;45.490;4.912;2023-06-22T04:26:12;18.30;99.90
40123;DHT22;25832;45.490;4.912;2023-06-22T04:28:37;18.30;99.90
40123;DHT22;25832;45.490;4.912;2023-06-22T04:31:03;18.20;99.90
40123;DHT22;25832;45.490;4.912;2023-06-22T04:33:30;18.30;99.90
40123;DHT22;25832;45.490;4.912;2023-06-22T04:35:56;18.20;99.90
40123;DHT22;25832;45.490;4.912;2023-06-22T04:38:22;18.30;99.90
40123;DHT22;25832;45.490;4.912;2023-06-22T04:40:49;18.30;99.90
40123;DHT22;25832;45.490;4.912;2023-06-22T04:43:15;18.20;99.90
40123;DHT22;25832;45.490;4.912;2023-06-22T04:45:40;18.10;99.90
40123;DHT22;25832;45.490;4.912;2023-06-22T04:48:06;18.00;99.90
40123;DHT22;25832;45.490;4.912;2023-06-22T04:50:33;18.00;99.90
40123;DHT22;25832;45.490;4.912;2023-06-22T04:52:59;18.10;99.90
40123;DHT22;25832;45.490;4.912;2023-06-22T04:55:25;18.20;99.90
40123;DHT22;25832;45.490;4.912;2023-06-22T04:57:51;18.20;99.90
40123;DHT22;25832;45.490;4.912;2023-06-22T05:00:20;18.20;99.90
40123;DHT22;25832;45.490;4.912;2023-06-22T05:02:48;18.20;99.90
40123;DHT22;25832;45.490;4.912;2023-06-22T05:05:15;18.20;99.90
40123;DHT22;25832;45.490;4.912;2023-06-22T05:07:45;18.20;99.90
40123;DHT22;25832;45.490;4.912;2023-06-22T05:10:13;18.30;99.90
40123;DHT22;25832;45.490;4.912;2023-06-22T05:12:40;18.40;99.90
40123;DHT22;25832;45.490;4.912;2023-06-22T05:15:08;18.40;99.90
40123;DHT22;25832;45.490;4.912;2023-06-22T05:17:34;18.40;99.90
40123;DHT22;25832;45.490;4.912;2023-06-22T05:20:00;18.50;99.90
40123;DHT22;25832;45.490;4.912;2023-06-22T05:22:26;18.50;99.90
40123;DHT22;25832;45.490;4.912;2023-06-22T05:24:52;18.50;99.90
40123;DHT22;25832;45.490;4.912;2023-06-22T05:27:17;18.60;99.90
40123;DHT22;25832;45.490;4.912;2023-06-22T05:29:43;18.80;99.90
40123;DHT22;25832;45.490;4.912;2023-06-22T05:32:09;18.90;99.90
40123;DHT22;25832;45.490;4.912;2023-06-22T05:34:35;18.90;99.90
40123;DHT22;25832;45.490;4.912;2023-06-22T05:37:01;19.00;99.90
40123;DHT22;25832;45.490;4.912;2023-06-22T05:39:27;19.10;99.90
40123;DHT22;25832;45.490;4.912;2023-06-22T05:41:52;19.20;99.90
40123;DHT22;25832;45.490;4.912;2023-06-22T05:44:18;19.00;99.90
40123;DHT22;25832;45.490;4.912;2023-06-22T05:46:45;19.00;99.90
40123;DHT22;25832;45.490;4.912;2023-06-22T05:49:12;19.10;99.90
40123;DHT22;25832;45.490;4.912;2023-06-22T05:51:39;19.30;99.90
40123;DHT22;25832;45.490;4.912;2023-06-22T05:54:05;19.30;99.90
40123;DHT22;25832;45.490;4.912;2023-06-22T05:56:30;19.40;99.90
40123;DHT22;25832;45.490;4.912;2023-06-22T05:58:56;19.50;99.90
40123;DHT22;25832;45.490;4.912;2023-06-22T06:01:22;19.60;99.90
40123;DHT22;25832;45.490;4.912;2023-06-22T06:03:47;19.70;99.90
40123;DHT22;25832;45.490;4.912;2023-06-22T06:06:15;19.70;99.90
40123;DHT22;25832;45.490;4.912;2023-06-22T06:08:41;19.80;99.90
40123;DHT22;25832;45.490;4.912;2023-06-22T06:11:07;19.90;99.90
40123;DHT22;25832;45.490;4.912;2023-06-22T06:13:33;20.00;99.90
40123;DHT22;25832;45.490;4.912;2023-06-22T06:15:59;20.10;99.90
40123;DHT22;25832;45.490;4.912;2023-06-22T06:18:24;20.20;99.90
40123;DHT22;25832;45.490;4.912;2023-06-22T06:20:50;20.20;99.90
40123;DHT22;25832;45.490;4.912;2023-06-22T06:23:16;20.10;99.90
40123;DHT22;25832;45.490;4.912;2023-06-22T06:25:42;20.00;99.90
40123;DHT22;25832;45.490;4.912;2023-06-22T06:28:08;20.00;99.90
40123;DHT22;25832;45.490;4.912;2023-06-22T06:30:33;20.00;99.90
40123;DHT22;25832;45.490;4.912;2023-06-22T06:33:00;20.00;99.90
40123;DHT22;25832;45.490;4.912;2023-06-22T06:35:26;20.00;99.90
40123;DHT22;25832;45.490;4.912;2023-06-22T06:37:51;20.00;99.90
40123;DHT22;25832;45.490;4.912;2023-06-22T06:40:18;20.00;99.90
40123;DHT22;25832;45.490;4.912;2023-06-22T06:42:45;20.00;99.90
40123;DHT22;25832;45.490;4.912;2023-06-22T06:45:12;19.90;99.90
40123;DHT22;25832;45.490;4.912;2023-06-22T06:47:39;19.90;99.90
40123;DHT22;25832;45.490;4.912;2023-06-22T06:50:05;19.90;99.90
40123;DHT22;25832;45.490;4.912;2023-06-22T06:52:31;19.90;99.90
40123;DHT22;25832;45.490;4.912;2023-06-22T06:54:58;19.90;99.90
40123;DHT22;25832;45.490;4.912;2023-06-22T06:57:24;19.90;99.90
40123;DHT22;25832;45.490;4.912;2023-06-22T06:59:54;20.00;99.90
40123;DHT22;25832;45.490;4.912;2023-06-22T07:02:21;20.00;99.90
40123;DHT22;25832;45.490;4.912;2023-06-22T07:04:47;20.20;99.90
40123;DHT22;25832;45.490;4.912;2023-06-22T07:07:14;20.50;99.90
40123;DHT22;25832;45.490;4.912;2023-06-22T07:09:40;20.60;99.90
40123;DHT22;25832;45.490;4.912;2023-06-22T07:12:06;20.80;99.90
40123;DHT22;25832;45.490;4.912;2023-06-22T07:14:32;20.90;99.90
40123;DHT22;25832;45.490;4.912;2023-06-22T07:16:58;21.00;99.90
40123;DHT22;25832;45.490;4.912;2023-06-22T07:19:27;21.00;99.90
40123;DHT22;25832;45.490;4.912;2023-06-22T07:21:54;21.10;99.90
40123;DHT22;25832;45.490;4.912;2023-06-22T07:24:20;21.00;99.90
40123;DHT22;25832;45.490;4.912;2023-06-22T07:26:47;21.00;99.90
40123;DHT22;25832;45.490;4.912;2023-06-22T07:29:18;21.00;99.90
40123;DHT22;25832;45.490;4.912;2023-06-22T07:31:46;21.00;99.90
40123;DHT22;25832;45.490;4.912;2023-06-22T07:34:12;21.00;99.90
40123;DHT22;25832;45.490;4.912;2023-06-22T07:36:38;21.10;99.90
40123;DHT22;25832;45.490;4.912;2023-06-22T07:39:04;21.30;99.90
40123;DHT22;25832;45.490;4.912;2023-06-22T07:41:30;21.60;99.90
40123;DHT22;25832;45.490;4.912;2023-06-22T07:43:56;21.80;99.90
40123;DHT22;25832;45.490;4.912;2023-06-22T07:46:23;22.00;99.90
40123;DHT22;25832;45.490;4.912;2023-06-22T07:48:49;22.10;99.90
40123;DHT22;25832;45.490;4.912;2023-06-22T07:51:14;22.20;99.90
40123;DHT22;25832;45.490;4.912;2023-06-22T07:53:44;22.20;99.90
40123;DHT22;25832;45.490;4.912;2023-06-22T07:56:13;22.30;99.90
40123;DHT22;25832;45.490;4.912;2023-06-22T07:58:44;22.50;99.90
40123;DHT22;25832;45.490;4.912;2023-06-22T08:01:10;22.70;99.90
40123;DHT22;25832;45.490;4.912;2023-06-22T08:03:36;23.10;99.90
40123;DHT22;25832;45.490;4.912;2023-06-22T08:06:02;23.30;99.90
40123;DHT22;25832;45.490;4.912;2023-06-22T08:08:28;23.50;99.90
40123;DHT22;25832;45.490;4.912;2023-06-22T08:10:53;23.60;99.90
40123;DHT22;25832;45.490;4.912;2023-06-22T08:13:19;23.60;99.90
40123;DHT22;25832;45.490;4.912;2023-06-22T08:15:45;23.80;99.90
40123;DHT22;25832;45.490;4.912;2023-06-22T08:18:11;23.90;99.90
40123;DHT22;25832;45.490;4.912;2023-06-22T08:20:36;24.10;99.90
40123;DHT22;25832;45.490;4.912;2023-06-22T08:23:02;24.40;99.90
40123;DHT22;25832;45.490;4.912;2023-06-22T08:25:34;24.70;99.90
40123;DHT22;25832;45.490;4.912;2023-06-22T08:28:02;25.00;99.90
40123;DHT22;25832;45.490;4.912;2023-06-22T08:30:28;25.20;99.90
40123;DHT22;25832;45.490;4.912;2023-06-22T08:32:53;25.60;99.90
40123;DHT22;25832;45.490;4.912;2023-06-22T08:35:23;25.90;99.90
40123;DHT22;25832;45.490;4.912;2023-06-22T08:37:49;26.20;99.90
40123;DHT22;25832;45.490;4.912;2023-06-22T08:40:21;26.50;99.90
40123;DHT22;25832;45.490;4.912;2023-06-22T08:42:47;26.70;99.90
40123;DHT22;25832;45.490;4.912;2023-06-22T08:45:14;26.80;99.90
40123;DHT22;25832;45.490;4.912;2023-06-22T08:47:40;26.80;99.90
40123;DHT22;25832;45.490;4.912;2023-06-22T08:50:09;26.80;99.90
40123;DHT22;25832;45.490;4.912;2023-06-22T08:52:36;26.70;99.90
40123;DHT22;25832;45.490;4.912;2023-06-22T08:55:02;26.80;99.90
40123;DHT22;25832;45.490;4.912;2023-06-22T08:57:28;26.70;99.90
40123;DHT22;25832;45.490;4.912;2023-06-22T08:59:56;26.70;99.90
40123;DHT22;25832;45.490;4.912;2023-06-22T09:02:26;26.60;99.90
40123;DHT22;25832;45.490;4.912;2023-06-22T09:04:58;26.40;99.90
40123;DHT22;25832;45.490;4.912;2023-06-22T09:07:25;26.40;99.90
40123;DHT22;25832;45.490;4.912;2023-06-22T09:09:51;26.40;99.90
40123;DHT22;25832;45.490;4.912;2023-06-22T09:12:18;26.50;99.90
40123;DHT22;25832;45.490;4.912;2023-06-22T09:14:46;26.60;99.90
40123;DHT22;25832;45.490;4.912;2023-06-22T09:17:12;26.60;99.90
40123;DHT22;25832;45.490;4.912;2023-06-22T09:19:38;26.50;99.90
40123;DHT22;25832;45.490;4.912;2023-06-22T09:22:04;26.60;99.90
40123;DHT22;25832;45.490;4.912;2023-06-22T09:24:32;26.70;99.90
40123;DHT22;25832;45.490;4.912;2023-06-22T09:26:57;26.80;99.90
40123;DHT22;25832;45.490;4.912;2023-06-22T09:29:23;26.80;99.90
40123;DHT22;25832;45.490;4.912;2023-06-22T09:31:49;26.80;99.90
40123;DHT22;25832;45.490;4.912;2023-06-22T09:34:15;26.80;99.90
40123;DHT22;25832;45.490;4.912;2023-06-22T09:36:41;26.80;99.90
40123;DHT22;25832;45.490;4.912;2023-06-22T09:39:07;26.60;99.90
40123;DHT22;25832;45.490;4.912;2023-06-22T09:41:32;26.40;99.90
40123;DHT22;25832;45.490;4.912;2023-06-22T09:43:58;26.30;99.90
40123;DHT22;25832;45.490;4.912;2023-06-22T09:46:24;26.50;99.90
40123;DHT22;25832;45.490;4.912;2023-06-22T09:48:53;26.70;99.90
40123;DHT22;25832;45.490;4.912;2023-06-22T09:51:19;26.90;99.90
40123;DHT22;25832;45.490;4.912;2023-06-22T09:53:47;27.00;99.90
40123;DHT22;25832;45.490;4.912;2023-06-22T09:56:13;27.00;99.90
40123;DHT22;25832;45.490;4.912;2023-06-22T09:58:44;26.90;99.90
40123;DHT22;25832;45.490;4.912;2023-06-22T10:01:10;26.90;99.90
40123;DHT22;25832;45.490;4.912;2023-06-22T10:03:37;26.80;99.90
40123;DHT22;25832;45.490;4.912;2023-06-22T10:06:02;26.70;99.90
40123;DHT22;25832;45.490;4.912;2023-06-22T10:08:28;26.70;99.90
40123;DHT22;25832;45.490;4.912;2023-06-22T10:10:54;26.80;99.90
40123;DHT22;25832;45.490;4.912;2023-06-22T10:13:20;26.70;99.90
40123;DHT22;25832;45.490;4.912;2023-06-22T10:15:45;26.50;99.90
40123;DHT22;25832;45.490;4.912;2023-06-22T10:18:17;26.20;99.90
40123;DHT22;25832;45.490;4.912;2023-06-22T10:20:43;26.00;99.90
40123;DHT22;25832;45.490;4.912;2023-06-22T10:23:09;25.80;99.90
40123;DHT22;25832;45.490;4.912;2023-06-22T10:25:34;25.80;99.90
40123;DHT22;25832;45.490;4.912;2023-06-22T10:28:00;25.70;99.90
40123;DHT22;25832;45.490;4.912;2023-06-22T10:30:26;25.80;99.90
40123;DHT22;25832;45.490;4.912;2023-06-22T10:32:52;25.90;99.90
40123;DHT22;25832;45.490;4.912;2023-06-22T10:35:17;26.10;99.90
40123;DHT22;25832;45.490;4.912;2023-06-22T10:37:44;26.30;99.90
40123;DHT22;25832;45.490;4.912;2023-06-22T10:40:12;26.40;99.90
40123;DHT22;25832;45.490;4.912;2023-06-22T10:42:38;26.50;99.90
40123;DHT22;25832;45.490;4.912;2023-06-22T10:45:04;26.40;99.90
40123;DHT22;25832;45.490;4.912;2023-06-22T10:47:30;26.30;99.90
40123;DHT22;25832;45.490;4.912;2023-06-22T10:49:55;26.00;99.90
40123;DHT22;25832;45.490;4.912;2023-06-22T10:52:21;25.70;99.90
40123;DHT22;25832;45.490;4.912;2023-06-22T10:54:47;25.70;99.90
40123;DHT22;25832;45.490;4.912;2023-06-22T10:57:13;25.40;99.90
40123;DHT22;25832;45.490;4.912;2023-06-22T10:59:38;25.30;99.90
40123;DHT22;25832;45.490;4.912;2023-06-22T11:02:04;25.20;99.90
40123;DHT22;25832;45.490;4.912;2023-06-22T11:04:30;25.00;99.90
40123;DHT22;25832;45.490;4.912;2023-06-22T11:06:56;24.80;99.90
40123;DHT22;25832;45.490;4.912;2023-06-22T11:09:22;24.80;99.90
40123;DHT22;25832;45.490;4.912;2023-06-22T11:11:48;24.90;99.90
40123;DHT22;25832;45.490;4.912;2023-06-22T11:14:14;24.90;99.60
40123;DHT22;25832;45.490;4.912;2023-06-22T11:16:40;25.00;97.80
40123;DHT22;25832;45.490;4.912;2023-06-22T11:19:06;25.10;97.30
40123;DHT22;25832;45.490;4.912;2023-06-22T11:21:32;25.20;98.30
40123;DHT22;25832;45.490;4.912;2023-06-22T11:23:58;25.40;97.60
40123;DHT22;25832;45.490;4.912;2023-06-22T11:26:25;25.60;97.20
40123;DHT22;25832;45.490;4.912;2023-06-22T11:28:53;25.70;96.60
40123;DHT22;25832;45.490;4.912;2023-06-22T11:31:19;25.40;96.30
40123;DHT22;25832;45.490;4.912;2023-06-22T11:33:44;25.10;96.70
40123;DHT22;25832;45.490;4.912;2023-06-22T11:36:11;24.90;96.60
40123;DHT22;25832;45.490;4.912;2023-06-22T11:38:37;24.70;96.50
40123;DHT22;25832;45.490;4.912;2023-06-22T11:41:05;24.50;96.90
40123;DHT22;25832;45.490;4.912;2023-06-22T11:43:31;24.50;97.30
40123;DHT22;25832;45.490;4.912;2023-06-22T11:45:57;24.40;96.50
40123;DHT22;25832;45.490;4.912;2023-06-22T11:48:24;24.40;96.70
40123;DHT22;25832;45.490;4.912;2023-06-22T11:50:50;24.30;96.20
40123;DHT22;25832;45.490;4.912;2023-06-22T11:53:16;24.30;96.40
40123;DHT22;25832;45.490;4.912;2023-06-22T11:55:44;24.10;96.30
40123;DHT22;25832;45.490;4.912;2023-06-22T11:58:10;24.10;96.80
40123;DHT22;25832;45.490;4.912;2023-06-22T12:00:37;24.10;96.60
40123;DHT22;25832;45.490;4.912;2023-06-22T12:03:03;24.10;97.20
40123;DHT22;25832;45.490;4.912;2023-06-22T12:05:28;24.10;97.70
40123;DHT22;25832;45.490;4.912;2023-06-22T12:07:54;24.00;97.70
40123;DHT22;25832;45.490;4.912;2023-06-22T12:10:22;23.90;97.50
40123;DHT22;25832;45.490;4.912;2023-06-22T12:12:48;23.80;97.40
40123;DHT22;25832;45.490;4.912;2023-06-22T12:15:13;23.80;96.80
40123;DHT22;25832;45.490;4.912;2023-06-22T12:17:40;23.70;96.30
40123;DHT22;25832;45.490;4.912;2023-06-22T12:20:07;23.70;96.30
40123;DHT22;25832;45.490;4.912;2023-06-22T12:22:33;23.50;97.10
40123;DHT22;25832;45.490;4.912;2023-06-22T12:24:59;23.30;97.90
40123;DHT22;25832;45.490;4.912;2023-06-22T12:27:25;23.10;98.30
40123;DHT22;25832;45.490;4.912;2023-06-22T12:29:51;23.00;98.80
40123;DHT22;25832;45.490;4.912;2023-06-22T12:32:17;22.90;99.80
40123;DHT22;25832;45.490;4.912;2023-06-22T12:34:43;22.80;99.90
40123;DHT22;25832;45.490;4.912;2023-06-22T12:37:09;22.70;99.90
40123;DHT22;25832;45.490;4.912;2023-06-22T12:39:35;22.60;99.90
40123;DHT22;25832;45.490;4.912;2023-06-22T12:42:01;22.50;99.90
40123;DHT22;25832;45.490;4.912;2023-06-22T12:44:26;22.20;99.90
40123;DHT22;25832;45.490;4.912;2023-06-22T12:46:52;21.90;99.90
40123;DHT22;25832;45.490;4.912;2023-06-22T12:49:18;21.70;99.90
40123;DHT22;25832;45.490;4.912;2023-06-22T12:51:44;21.50;99.90
40123;DHT22;25832;45.490;4.912;2023-06-22T12:54:11;21.40;99.90
40123;DHT22;25832;45.490;4.912;2023-06-22T12:56:38;21.20;99.90
40123;DHT22;25832;45.490;4.912;2023-06-22T12:59:04;21.10;99.90
40123;DHT22;25832;45.490;4.912;2023-06-22T13:01:30;21.00;99.90
40123;DHT22;25832;45.490;4.912;2023-06-22T13:04:00;20.90;99.90
40123;DHT22;25832;45.490;4.912;2023-06-22T13:06:26;20.80;99.90
40123;DHT22;25832;45.490;4.912;2023-06-22T13:08:52;20.70;99.90
40123;DHT22;25832;45.490;4.912;2023-06-22T13:11:17;20.50;99.90
40123;DHT22;25832;45.490;4.912;2023-06-22T13:13:45;20.40;99.90
40123;DHT22;25832;45.490;4.912;2023-06-22T13:16:11;20.20;99.90
40123;DHT22;25832;45.490;4.912;2023-06-22T13:18:37;20.00;99.90
40123;DHT22;25832;45.490;4.912;2023-06-22T13:21:03;19.60;99.90
40123;DHT22;25832;45.490;4.912;2023-06-22T13:23:30;19.20;99.90
40123;DHT22;25832;45.490;4.912;2023-06-22T13:25:55;18.90;99.90
40123;DHT22;25832;45.490;4.912;2023-06-22T13:28:21;18.60;99.90
40123;DHT22;25832;45.490;4.912;2023-06-22T13:30:47;18.40;99.90
40123;DHT22;25832;45.490;4.912;2023-06-22T13:33:14;18.30;99.90
40123;DHT22;25832;45.490;4.912;2023-06-22T13:35:40;18.30;99.90
40123;DHT22;25832;45.490;4.912;2023-06-22T13:38:08;18.20;99.90
40123;DHT22;25832;45.490;4.912;2023-06-22T13:40:34;18.10;99.90
40123;DHT22;25832;45.490;4.912;2023-06-22T13:43:00;18.00;99.90
40123;DHT22;25832;45.490;4.912;2023-06-22T13:45:26;18.00;99.90
40123;DHT22;25832;45.490;4.912;2023-06-22T13:47:52;17.80;99.90
40123;DHT22;25832;45.490;4.912;2023-06-22T13:50:18;17.50;99.90
40123;DHT22;25832;45.490;4.912;2023-06-22T13:52:43;17.40;99.90
40123;DHT22;25832;45.490;4.912;2023-06-22T13:55:09;17.20;99.90
40123;DHT22;25832;45.490;4.912;2023-06-22T13:57:35;17.20;99.90
40123;DHT22;25832;45.490;4.912;2023-06-22T14:00:02;17.10;99.90
40123;DHT22;25832;45.490;4.912;2023-06-22T14:02:29;17.00;99.90
40123;DHT22;25832;45.490;4.912;2023-06-22T14:04:55;16.90;99.90
40123;DHT22;25832;45.490;4.912;2023-06-22T14:07:20;16.70;99.90
40123;DHT22;25832;45.490;4.912;2023-06-22T14:09:46;16.50;99.90
40123;DHT22;25832;45.490;4.912;2023-06-22T14:12:12;16.50;99.90
40123;DHT22;25832;45.490;4.912;2023-06-22T14:14:38;16.40;99.90
40123;DHT22;25832;45.490;4.912;2023-06-22T14:17:05;16.30;99.90
40123;DHT22;25832;45.490;4.912;2023-06-22T14:19:31;16.30;99.90
40123;DHT22;25832;45.490;4.912;2023-06-22T14:21:57;16.30;99.90
40123;DHT22;25832;45.490;4.912;2023-06-22T14:24:23;16.30;99.90
40123;DHT22;25832;45.490;4.912;2023-06-22T14:26:51;16.20;99.90
40123;DHT22;25832;45.490;4.912;2023-06-22T14:29:17;16.20;99.90
40123;DHT22;25832;45.490;4.912;2023-06-22T14:31:46;16.20;99.90
40123;DHT22;25832;45.490;4.912;2023-06-22T14:34:12;16.30;99.90
40123;DHT22;25832;45.490;4.912;2023-06-22T14:36:38;16.30;99.90
40123;DHT22;25832;45.490;4.912;2023-06-22T14:39:04;16.30;99.90
40123;DHT22;25832;45.490;4.912;2023-06-22T14:41:30;16.40;99.90
40123;DHT22;25832;45.490;4.912;2023-06-22T14:43:56;16.50;99.90
40123;DHT22;25832;45.490;4.912;2023-06-22T14:46:22;16.50;99.90
40123;DHT22;25832;45.490;4.912;2023-06-22T14:48:48;16.60;99.90
40123;DHT22;25832;45.490;4.912;2023-06-22T14:51:16;16.70;99.90
40123;DHT22;25832;45.490;4.912;2023-06-22T14:53:43;16.70;99.90
40123;DHT22;25832;45.490;4.912;2023-06-22T14:56:10;16.70;99.90
40123;DHT22;25832;45.490;4.912;2023-06-22T14:58:37;16.80;99.90
40123;DHT22;25832;45.490;4.912;2023-06-22T15:01:03;16.80;99.90
40123;DHT22;25832;45.490;4.912;2023-06-22T15:03:31;16.90;99.90
40123;DHT22;25832;45.490;4.912;2023-06-22T15:05:58;17.00;99.90
40123;DHT22;25832;45.490;4.912;2023-06-22T15:08:25;17.10;99.90
40123;DHT22;25832;45.490;4.912;2023-06-22T15:10:51;17.20;99.90
40123;DHT22;25832;45.490;4.912;2023-06-22T15:13:18;17.20;99.90
40123;DHT22;25832;45.490;4.912;2023-06-22T15:15:47;17.30;99.90
40123;DHT22;25832;45.490;4.912;2023-06-22T15:18:16;17.40;99.90
40123;DHT22;25832;45.490;4.912;2023-06-22T15:20:42;17.50;99.90
40123;DHT22;25832;45.490;4.912;2023-06-22T15:23:13;17.60;99.90
40123;DHT22;25832;45.490;4.912;2023-06-22T15:25:39;17.80;99.90
40123;DHT22;25832;45.490;4.912;2023-06-22T15:28:08;17.90;99.90
40123;DHT22;25832;45.490;4.912;2023-06-22T15:30:33;18.10;99.90